createdAt,value
2022-12-08T00:01:34.590Z,100171.41
2022-12-08T00:04:58.112Z,100177.66
2022-12-08T00:08:19.704Z,100177.25
2022-12-08T00:11:23.065Z,100165.91
2022-12-08T00:14:33.458Z,100166.06
2022-12-08T00:17:36.785Z,100172.16
2022-12-08T00:20:39.510Z,100166.16
2022-12-08T00:23:42.534Z,100172.47
2022-12-08T00:26:45.460Z,100175.09
2022-12-08T00:29:50.143Z,100166.75
2022-12-08T00:33:13.017Z,100176.44
2022-12-08T00:36:16.558Z,100164.56
2022-12-08T00:39:19.573Z,100178.91
2022-12-08T00:42:22.680Z,100179.91
2022-12-08T00:45:25.357Z,100175.22
2022-12-08T00:48:28.723Z,100174.44
2022-12-08T00:51:32.108Z,100178.06
2022-12-08T00:54:35.550Z,100177.72
2022-12-08T00:57:38.240Z,100177.72
2022-12-08T01:00:42.911Z,100176.34
2022-12-08T01:03:45.889Z,100172.72
2022-12-08T01:06:49.792Z,100171.69
2022-12-08T01:09:54.321Z,100164.84
2022-12-08T01:12:58.817Z,100169.66
2022-12-08T01:16:01.732Z,100171.28
2022-12-08T01:19:05.020Z,100164.12
2022-12-08T01:22:08.265Z,100172.28
2022-12-08T01:25:11.487Z,100161.56
2022-12-08T01:28:14.183Z,100164.78
2022-12-08T01:31:20.250Z,100161.97
2022-12-08T01:34:23.041Z,100158.34
2022-12-08T01:37:26.417Z,100156.75
2022-12-08T01:40:29.345Z,100154.50
2022-12-08T01:43:49.613Z,100144.91
2022-12-08T01:46:54.388Z,100149.59
2022-12-08T01:49:58.369Z,100148.56
2022-12-08T01:53:35.376Z,100141.31
2022-12-08T01:57:16.072Z,100141.25
2022-12-08T02:00:21.697Z,100136.00
2022-12-08T02:03:51.841Z,100132.22
2022-12-08T02:06:54.978Z,100142.94
2022-12-08T02:10:01.119Z,100136.91
2022-12-08T02:13:06.313Z,100140.03
2022-12-08T02:16:12.188Z,100135.56
2022-12-08T02:19:36.538Z,100141.38
2022-12-08T02:23:08.305Z,100139.94
2022-12-08T02:26:44.897Z,100136.91
2022-12-08T02:29:57.124Z,100133.69
2022-12-08T02:33:18.693Z,100127.06
2022-12-08T02:36:48.936Z,100135.16
2022-12-08T02:40:12.228Z,100120.00
2022-12-08T02:43:25.148Z,100117.22
2022-12-08T02:46:33.952Z,100115.81
2022-12-08T02:49:37.000Z,100121.13
2022-12-08T02:52:42.569Z,100121.53
2022-12-08T02:55:48.358Z,100127.16
2022-12-08T02:58:57.856Z,100128.53
2022-12-08T03:02:01.186Z,100124.91
2022-12-08T03:05:13.733Z,100120.44
2022-12-08T03:08:33.229Z,100113.75
2022-12-08T03:11:53.353Z,100111.87
2022-12-08T03:15:04.013Z,100104.34
2022-12-08T03:18:08.436Z,100099.72
2022-12-08T03:21:14.619Z,100096.03
2022-12-08T03:24:18.829Z,100098.00
2022-12-08T03:27:24.965Z,100096.31
2022-12-08T03:30:36.893Z,100088.47
2022-12-08T03:33:44.905Z,100083.69
2022-12-08T03:36:51.980Z,100088.44
2022-12-08T03:39:55.584Z,100084.59
2022-12-08T03:42:58.368Z,100077.75
2022-12-08T03:46:01.411Z,100074.47
2022-12-08T03:49:04.157Z,100077.87
2022-12-08T03:52:07.221Z,100080.41
2022-12-08T03:55:10.277Z,100078.97
2022-12-08T03:58:13.208Z,100081.22
2022-12-08T04:01:15.880Z,100079.19
2022-12-08T04:04:19.164Z,100075.88
2022-12-08T04:07:21.749Z,100078.28
2022-12-08T04:10:24.764Z,100070.19
2022-12-08T04:13:27.739Z,100073.41
2022-12-08T04:16:30.845Z,100066.34
2022-12-08T04:19:33.504Z,100073.16
2022-12-08T04:22:56.332Z,100068.44
2022-12-08T04:25:59.091Z,100068.72
2022-12-08T04:29:21.987Z,100075.38
2022-12-08T04:32:24.721Z,100082.38
2022-12-08T04:35:28.565Z,100074.06
2022-12-08T04:38:31.621Z,100083.69
2022-12-08T04:41:36.323Z,100084.63
2022-12-08T04:44:58.850Z,100090.16
2022-12-08T04:48:02.958Z,100083.31
2022-12-08T04:51:06.341Z,100081.97
2022-12-08T04:54:29.252Z,100079.81
2022-12-08T04:57:36.296Z,100083.53
2022-12-08T05:00:40.940Z,100077.09
2022-12-08T05:03:51.953Z,100070.38
2022-12-08T05:06:56.171Z,100063.78
2022-12-08T05:10:00.213Z,100056.19
2022-12-08T05:13:11.978Z,100054.81
2022-12-08T05:16:16.507Z,100065.28
2022-12-08T05:19:22.922Z,100061.00
2022-12-08T05:22:45.595Z,100062.69
2022-12-08T05:25:49.513Z,100063.38
2022-12-08T05:28:56.817Z,100068.28
2022-12-08T05:32:00.291Z,100056.50
2022-12-08T05:35:04.485Z,100057.84
2022-12-08T05:38:18.285Z,100060.66
2022-12-08T05:41:21.714Z,100063.72
2022-12-08T05:44:27.111Z,100059.09
2022-12-08T05:47:36.011Z,100054.31
2022-12-08T05:50:59.420Z,100054.69
2022-12-08T05:54:02.246Z,100053.25
2022-12-08T05:57:25.305Z,100054.84
2022-12-08T06:00:49.388Z,100054.09
2022-12-08T06:04:18.124Z,100052.44
2022-12-08T06:07:43.119Z,100055.44
2022-12-08T06:11:06.004Z,100047.75
2022-12-08T06:14:12.684Z,100049.34
2022-12-08T06:17:18.584Z,100042.97
2022-12-08T06:20:43.186Z,100042.97
2022-12-08T06:23:51.703Z,100053.84
2022-12-08T06:26:54.343Z,100052.28
2022-12-08T06:29:57.841Z,100051.50
2022-12-08T06:33:00.564Z,100058.50
2022-12-08T06:36:05.280Z,100053.47
2022-12-08T06:39:09.979Z,100066.44
2022-12-08T06:42:31.728Z,100073.59
2022-12-08T06:46:16.621Z,100071.03
2022-12-08T06:49:36.266Z,100068.16
2022-12-08T06:52:49.302Z,100066.97
2022-12-08T06:56:02.106Z,100077.09
2022-12-08T06:59:05.215Z,100074.87
2022-12-08T07:02:16.059Z,100072.75
2022-12-08T07:05:18.804Z,100078.53
2022-12-08T07:08:25.326Z,100076.28
2022-12-08T07:11:28.485Z,100075.50
2022-12-08T07:14:31.489Z,100074.69
2022-12-08T07:17:34.191Z,100071.69
2022-12-08T07:20:37.411Z,100071.44
2022-12-08T07:23:40.562Z,100071.53
2022-12-08T07:26:43.807Z,100076.56
2022-12-08T07:29:46.487Z,100076.72
2022-12-08T07:32:51.716Z,100079.72
2022-12-08T07:36:14.411Z,100078.09
2022-12-08T07:39:22.596Z,100069.25
2022-12-08T07:42:25.331Z,100068.47
2022-12-08T07:45:48.922Z,100076.41
2022-12-08T07:49:11.673Z,100070.81
2022-12-08T07:52:18.455Z,100067.09
2022-12-08T07:55:21.317Z,100060.44
2022-12-08T07:58:42.322Z,100054.37
2022-12-08T08:02:23.351Z,100047.53
2022-12-08T08:05:27.639Z,100040.72
2022-12-08T08:08:30.765Z,100040.28
2022-12-08T08:12:22.317Z,100034.75
2022-12-08T08:15:36.603Z,100030.44
2022-12-08T08:18:59.578Z,100039.63
2022-12-08T08:22:03.474Z,100046.53
2022-12-08T08:25:06.851Z,100050.81
2022-12-08T08:28:27.547Z,100048.56
2022-12-08T08:31:50.491Z,100039.22
2022-12-08T08:35:13.175Z,100052.47
2022-12-08T08:38:16.950Z,100061.56
2022-12-08T08:41:20.018Z,100078.28
2022-12-08T08:44:28.265Z,100072.38
2022-12-08T08:47:30.976Z,100054.37
2022-12-08T08:50:54.655Z,100025.44
2022-12-08T08:53:58.389Z,100040.06
2022-12-08T08:57:02.317Z,100055.97
2022-12-08T09:00:07.224Z,100060.22
2022-12-08T09:03:14.211Z,100066.47
2022-12-08T09:06:18.021Z,100060.31
2022-12-08T09:09:41.111Z,100057.69
2022-12-08T09:12:43.883Z,100055.88
2022-12-08T09:15:47.317Z,100043.78
2022-12-08T09:18:50.175Z,100037.59
2022-12-08T09:21:53.357Z,100039.06
2022-12-08T09:24:56.154Z,100028.47
2022-12-08T09:28:00.002Z,100037.47
2022-12-08T09:31:02.863Z,100051.69
2022-12-08T09:34:05.996Z,100038.62
2022-12-08T09:37:09.381Z,100024.91
2022-12-08T09:40:20.196Z,100041.59
2022-12-08T09:43:38.124Z,100030.72
2022-12-08T09:46:52.589Z,100026.03
2022-12-08T10:35:07.564Z,99971.47
2022-12-08T10:38:23.194Z,99943.69
2022-12-08T10:41:25.902Z,99950.38
2022-12-08T10:44:29.432Z,99943.03
2022-12-08T10:47:38.903Z,99936.53
2022-12-08T10:50:43.546Z,99923.56
2022-12-08T10:53:47.127Z,99911.16
2022-12-08T10:56:55.135Z,99910.59
2022-12-08T10:59:57.835Z,99902.34
2022-12-08T11:03:03.616Z,99905.38
2022-12-08T11:06:16.564Z,99896.34
2022-12-08T11:09:19.609Z,99890.62
2022-12-08T11:12:28.218Z,99892.28
2022-12-08T11:16:31.598Z,99886.25
2022-12-08T11:19:59.256Z,99876.88
2022-12-08T11:24:33.423Z,99865.38
2022-12-08T11:28:11.370Z,99847.25
2022-12-08T11:31:34.740Z,99832.28
2022-12-08T11:35:02.512Z,99833.78
2022-12-08T11:38:23.976Z,99838.56
2022-12-08T11:41:41.105Z,99835.59
2022-12-08T11:44:58.848Z,99839.84
2022-12-08T11:48:21.389Z,99836.03
2022-12-08T11:51:42.777Z,99841.53
2022-12-08T11:55:15.934Z,99841.56
2022-12-08T11:58:42.440Z,99846.28
2022-12-08T12:01:45.198Z,99841.00
2022-12-08T12:04:56.489Z,99844.84
2022-12-08T12:08:14.720Z,99843.56
2022-12-08T12:12:03.173Z,99839.75
2022-12-08T12:15:24.343Z,99842.50
2022-12-08T12:18:32.913Z,99835.78
2022-12-08T12:21:56.383Z,99821.53
2022-12-08T12:24:59.292Z,99826.03
2022-12-08T12:28:06.600Z,99820.78
2022-12-08T12:31:17.891Z,99816.38
2022-12-08T12:34:25.537Z,99814.75
2022-12-08T12:37:39.300Z,99801.31
2022-12-08T12:40:42.713Z,99813.03
2022-12-08T12:44:11.919Z,99799.34
2022-12-08T12:47:56.337Z,99802.75
2022-12-08T12:51:00.085Z,99795.03
2022-12-08T12:54:26.691Z,99799.56
2022-12-08T12:57:50.351Z,99802.19
2022-12-08T13:01:13.091Z,99801.78
2022-12-08T13:04:17.789Z,99793.88
2022-12-08T13:07:23.018Z,99800.91
2022-12-08T13:10:40.410Z,99795.03
2022-12-08T13:14:38.860Z,99790.50
2022-12-08T13:18:40.526Z,99783.69
2022-12-08T13:22:54.202Z,99786.63
2022-12-08T13:27:06.189Z,99777.19
2022-12-08T13:30:41.172Z,99774.75
2022-12-08T13:33:44.475Z,99782.75
2022-12-08T13:37:02.631Z,99781.72
2022-12-08T13:40:15.308Z,99779.25
2022-12-08T13:43:38.737Z,99791.09
2022-12-08T13:47:24.554Z,99791.22
2022-12-08T13:57:35.294Z,99781.16
2022-12-08T14:00:39.297Z,99787.41
2022-12-08T14:04:21.702Z,99777.81
2022-12-08T14:07:14.187Z,99777.22
2022-12-08T14:10:24.715Z,99765.59
2022-12-08T14:13:27.436Z,99768.25
2022-12-08T14:16:41.054Z,99774.66
2022-12-08T14:19:52.393Z,99765.84
2022-12-08T14:22:56.511Z,99760.59
2022-12-08T14:25:59.252Z,99754.47
2022-12-08T14:29:02.568Z,99751.22
2022-12-08T14:32:19.588Z,99752.62
2022-12-08T14:35:28.832Z,99758.53
2022-12-08T14:38:31.801Z,99768.59
2022-12-08T14:41:35.002Z,99760.06
2022-12-08T14:44:39.680Z,99759.19
2022-12-08T14:47:51.593Z,99752.62
2022-12-08T14:50:57.696Z,99762.53
2022-12-08T14:54:07.344Z,99762.00
2022-12-08T14:57:14.461Z,99765.09
2022-12-08T15:00:22.178Z,99760.31
2022-12-08T15:03:27.761Z,99768.44
2022-12-08T15:06:30.967Z,99773.06
2022-12-08T15:09:39.374Z,99773.78
2022-12-08T15:13:04.977Z,99777.78
2022-12-08T15:16:32.095Z,99766.69
2022-12-08T15:19:35.318Z,99754.88
2022-12-08T15:22:39.057Z,99754.41
2022-12-08T15:25:42.082Z,99752.66
2022-12-08T15:28:44.879Z,99740.22
2022-12-08T15:31:49.341Z,99733.09
2022-12-08T15:34:52.302Z,99734.47
2022-12-08T15:38:55.723Z,99723.47
2022-12-08T15:42:38.501Z,99717.31
2022-12-08T15:46:21.766Z,99710.38
2022-12-08T15:50:21.083Z,99712.37
2022-12-08T15:54:33.048Z,99713.66
2022-12-08T15:58:30.867Z,99722.00
2022-12-08T16:00:58.905Z,99730.81
2022-12-08T16:07:29.997Z,99746.12
2022-12-08T16:11:08.438Z,99745.50
2022-12-08T16:14:09.495Z,99734.37
2022-12-08T16:17:21.359Z,99732.56
2022-12-08T16:20:44.039Z,99721.56
2022-12-08T16:23:48.473Z,99731.28
2022-12-08T16:30:17.187Z,99737.34
2022-12-08T16:33:20.008Z,99744.28
2022-12-08T16:36:23.057Z,99753.59
2022-12-08T16:39:25.893Z,99759.81
2022-12-08T16:42:39.780Z,99771.00
2022-12-08T16:45:45.063Z,99757.84
2022-12-08T16:48:48.312Z,99748.03
2022-12-08T16:51:50.948Z,99744.34
2022-12-08T16:54:53.991Z,99742.47
2022-12-08T16:57:56.819Z,99742.13
2022-12-08T17:00:59.843Z,99740.34
2022-12-08T17:07:28.230Z,99744.38
2022-12-08T17:10:34.410Z,99746.81
2022-12-08T17:13:41.223Z,99740.84
2022-12-08T17:16:44.637Z,99735.59
2022-12-08T17:19:47.760Z,99729.44
2022-12-08T17:22:55.364Z,99733.81
2022-12-08T17:26:00.079Z,99727.13
2022-12-08T17:29:04.462Z,99729.69
2022-12-08T17:32:07.674Z,99731.19
2022-12-08T17:35:11.465Z,99734.78
2022-12-08T17:38:15.009Z,99737.50
2022-12-08T17:41:18.061Z,99734.37
2022-12-08T17:44:21.398Z,99734.28
2022-12-08T17:47:24.137Z,99738.06
2022-12-08T17:50:27.133Z,99739.09
2022-12-08T17:53:35.762Z,99740.56
2022-12-08T17:56:40.271Z,99750.06
2022-12-08T17:59:42.902Z,99761.53
2022-12-08T18:02:46.000Z,99764.37
2022-12-08T18:05:49.470Z,99759.84
2022-12-08T18:08:52.275Z,99751.28
2022-12-08T18:11:55.454Z,99748.66
2022-12-08T18:14:58.444Z,99759.56
2022-12-08T18:18:01.942Z,99763.09
2022-12-08T18:21:05.079Z,99762.19
2022-12-08T18:24:15.223Z,99755.31
2022-12-08T18:27:18.145Z,99747.94
2022-12-08T18:30:21.556Z,99748.38
2022-12-08T18:33:24.352Z,99754.34
2022-12-08T18:36:27.511Z,99748.66
2022-12-08T18:39:32.471Z,99757.22
2022-12-08T18:42:35.592Z,99760.09
2022-12-08T18:45:39.793Z,99758.13
2022-12-08T18:48:47.277Z,99758.91
2022-12-08T18:51:50.113Z,99759.31
2022-12-08T18:55:08.824Z,99761.06
2022-12-08T18:58:15.151Z,99750.78
2022-12-08T19:01:18.471Z,99750.06
2022-12-08T19:04:29.440Z,99742.59
2022-12-08T19:07:32.975Z,99743.38
2022-12-08T19:10:38.276Z,99733.41
2022-12-08T19:13:44.143Z,99737.00
2022-12-08T19:16:46.825Z,99734.25
2022-12-08T19:19:50.008Z,99732.03
2022-12-08T19:22:53.090Z,99746.25
2022-12-08T19:25:56.074Z,99738.91
2022-12-08T19:28:58.981Z,99735.97
2022-12-08T19:32:05.131Z,99742.03
2022-12-08T19:35:08.395Z,99741.75
2022-12-08T19:38:11.501Z,99742.09
2022-12-08T19:41:33.391Z,99736.84
2022-12-08T19:45:08.982Z,99737.78
2022-12-08T19:48:14.071Z,99734.56
2022-12-08T19:51:17.187Z,99725.28
2022-12-08T19:54:19.924Z,99725.19
2022-12-08T19:57:22.904Z,99732.34
2022-12-08T20:00:25.713Z,99739.38
2022-12-08T20:03:28.973Z,99737.81
2022-12-08T20:06:31.760Z,99751.66
2022-12-08T20:09:34.851Z,99741.94
2022-12-08T20:12:38.423Z,99745.28
2022-12-08T20:15:41.767Z,99744.03
2022-12-08T20:18:44.718Z,99750.59
2022-12-08T20:21:48.499Z,99753.34
2022-12-08T20:24:57.366Z,99746.97
2022-12-08T20:28:02.427Z,99744.16
2022-12-08T20:31:05.323Z,99745.09
2022-12-08T20:34:14.164Z,99749.00
2022-12-08T20:37:16.863Z,99733.00
2022-12-08T20:40:20.710Z,99739.91
2022-12-08T20:43:24.058Z,99726.06
2022-12-08T20:46:26.982Z,99739.81
2022-12-08T20:49:34.390Z,99739.53
2022-12-08T20:52:40.609Z,99734.78
2022-12-08T20:55:43.444Z,99736.88
2022-12-08T20:58:47.359Z,99724.06
2022-12-08T21:01:52.511Z,99724.53
2022-12-08T21:04:55.549Z,99715.09
2022-12-08T21:07:58.561Z,99717.53
2022-12-08T21:11:01.699Z,99722.44
2022-12-08T21:14:04.790Z,99732.16
2022-12-08T21:17:08.239Z,99729.81
2022-12-08T21:20:11.614Z,99746.66
2022-12-08T21:23:16.282Z,99745.16
2022-12-08T21:26:21.759Z,99741.72
2022-12-08T21:29:24.643Z,99743.81
2022-12-08T21:32:30.356Z,99742.66
2022-12-08T21:35:33.866Z,99748.41
2022-12-08T21:38:37.843Z,99756.16
2022-12-08T21:41:59.501Z,99756.53
2022-12-08T21:45:02.425Z,99754.12
2022-12-08T21:48:11.442Z,99746.94
2022-12-08T21:51:14.827Z,99750.63
2022-12-08T21:54:19.221Z,99739.84
2022-12-08T21:57:22.484Z,99747.06
2022-12-08T22:00:26.449Z,99734.13
2022-12-08T22:03:29.952Z,99725.66
2022-12-08T22:06:32.969Z,99725.81
2022-12-08T22:09:36.358Z,99735.72
2022-12-08T22:12:39.210Z,99733.00
2022-12-08T22:15:42.227Z,99737.38
2022-12-08T22:18:45.157Z,99730.25
2022-12-08T22:21:48.191Z,99732.72
2022-12-08T22:24:50.849Z,99736.13
2022-12-08T22:27:53.918Z,99732.97
2022-12-08T22:30:56.649Z,99731.03
2022-12-08T22:34:00.097Z,99724.84
2022-12-08T22:37:02.617Z,99734.34
2022-12-08T22:40:06.787Z,99725.44
2022-12-08T22:43:09.675Z,99727.56
2022-12-08T22:46:24.393Z,99736.63
2022-12-08T22:49:28.991Z,99738.06
2022-12-08T22:52:31.787Z,99744.34
2022-12-08T22:55:34.382Z,99740.59
2022-12-08T22:58:38.691Z,99743.16
2022-12-08T23:01:43.357Z,99748.41
2022-12-08T23:04:46.555Z,99748.31
2022-12-08T23:07:50.843Z,99746.38
2022-12-08T23:10:54.687Z,99742.37
2022-12-08T23:14:00.641Z,99739.41
2022-12-08T23:17:03.891Z,99743.16
2022-12-08T23:20:07.591Z,99733.41
2022-12-08T23:23:11.084Z,99741.28
2022-12-08T23:26:18.630Z,99729.16
2022-12-08T23:29:21.805Z,99716.66
2022-12-08T23:32:24.869Z,99727.97
2022-12-08T23:35:28.029Z,99722.06
2022-12-08T23:38:30.854Z,99724.94
2022-12-08T23:41:33.839Z,99714.44
2022-12-08T23:44:36.634Z,99708.69
2022-12-08T23:47:39.533Z,99712.75
2022-12-08T23:50:42.322Z,99708.12
2022-12-08T23:53:46.050Z,99705.84
2022-12-08T23:56:48.825Z,99715.75
2022-12-08T23:59:51.724Z,99713.88
